sensor_id;sensor_type;location;lat;lon;timestamp;pressure;altitude;pressure_sealevel;temperature;humidity
62680;BME280;68213;40.528;44.712;2023-05-14T00:00:24;80173.41;;;6.06;89.74
62680;BME280;68213;40.528;44.712;2023-05-14T00:01:25;80173.41;;;6.06;89.48
62680;BME280;68213;40.528;44.712;2023-05-14T00:02:26;80176.59;;;6.05;89.20
62680;BME280;68213;40.528;44.712;2023-05-14T00:03:27;80179.88;;;6.05;89.04
62680;BME280;68213;40.528;44.712;2023-05-14T00:04:27;80171.25;;;6.02;89.08
62680;BME280;68213;40.528;44.712;2023-05-14T00:05:28;80173.28;;;6.04;88.83
62680;BME280;68213;40.528;44.712;2023-05-14T00:06:29;80165.50;;;5.94;89.26
62680;BME280;68213;40.528;44.712;2023-05-14T00:07:29;80172.38;;;5.99;89.50
62680;BME280;68213;40.528;44.712;2023-05-14T00:08:30;80170.56;;;6.02;89.46
62680;BME280;68213;40.528;44.712;2023-05-14T00:09:31;80169.19;;;6.01;89.59
62680;BME280;68213;40.528;44.712;2023-05-14T00:10:32;80175.09;;;6.01;89.21
62680;BME280;68213;40.528;44.712;2023-05-14T00:11:32;80168.50;;;6.00;89.17
62680;BME280;68213;40.528;44.712;2023-05-14T00:12:33;80170.16;;;5.96;88.88
62680;BME280;68213;40.528;44.712;2023-05-14T00:13:34;80176.19;;;5.98;88.52
62680;BME280;68213;40.528;44.712;2023-05-14T00:14:35;80171.25;;;6.02;88.20
62680;BME280;68213;40.528;44.712;2023-05-14T00:15:36;80170.13;;;6.06;87.43
62680;BME280;68213;40.528;44.712;2023-05-14T00:16:36;80173.78;;;6.12;86.73
62680;BME280;68213;40.528;44.712;2023-05-14T00:17:37;80159.00;;;6.05;86.16
62680;BME280;68213;40.528;44.712;2023-05-14T00:18:38;80174.59;;;6.15;86.05
62680;BME280;68213;40.528;44.712;2023-05-14T00:19:38;80176.41;;;6.12;85.44
62680;BME280;68213;40.528;44.712;2023-05-14T00:20:41;80174.28;;;6.21;85.53
62680;BME280;68213;40.528;44.712;2023-05-14T00:21:41;80178.13;;;6.19;85.43
62680;BME280;68213;40.528;44.712;2023-05-14T00:22:42;80174.97;;;6.21;85.16
62680;BME280;68213;40.528;44.712;2023-05-14T00:23:43;80170.44;;;6.22;84.85
62680;BME280;68213;40.528;44.712;2023-05-14T00:24:43;80170.44;;;6.22;84.43
62680;BME280;68213;40.528;44.712;2023-05-14T00:25:44;80171.22;;;6.24;84.87
62680;BME280;68213;40.528;44.712;2023-05-14T00:26:48;80162.97;;;6.28;84.67
62680;BME280;68213;40.528;44.712;2023-05-14T00:27:49;80165.44;;;6.26;84.61
62680;BME280;68213;40.528;44.712;2023-05-14T00:28:49;80166.50;;;6.32;84.46
62680;BME280;68213;40.528;44.712;2023-05-14T00:29:50;80169.78;;;6.33;84.74
62680;BME280;68213;40.528;44.712;2023-05-14T00:30:51;80162.97;;;6.28;83.89
62680;BME280;68213;40.528;44.712;2023-05-14T00:31:52;80171.06;;;6.32;84.57
62680;BME280;68213;40.528;44.712;2023-05-14T00:32:53;80166.50;;;6.32;85.54
62680;BME280;68213;40.528;44.712;2023-05-14T00:51:37;80167.63;;;6.08;86.21
62680;BME280;68213;40.528;44.712;2023-05-14T01:03:56;80175.19;;;5.82;89.48
62680;BME280;68213;40.528;44.712;2023-05-14T01:04:57;80174.94;;;5.78;89.59
62680;BME280;68213;40.528;44.712;2023-05-14T01:07:18;80173.19;;;5.70;89.96
62680;BME280;68213;40.528;44.712;2023-05-14T01:10:26;80166.31;;;5.75;90.29
62680;BME280;68213;40.528;44.712;2023-05-14T01:11:06;80172.47;;;5.80;89.98
62680;BME280;68213;40.528;44.712;2023-05-14T01:13:39;80171.09;;;5.79;88.47
62680;BME280;68213;40.528;44.712;2023-05-14T01:15:07;80172.47;;;5.80;89.11
62680;BME280;68213;40.528;44.712;2023-05-14T01:16:12;80144.44;;;5.59;89.21
62680;BME280;68213;40.528;44.712;2023-05-14T01:17:14;80172.47;;;5.80;89.45
62680;BME280;68213;40.528;44.712;2023-05-14T01:18:20;80171.34;;;5.83;88.92
62680;BME280;68213;40.528;44.712;2023-05-14T01:19:32;80172.09;;;5.74;88.43
62680;BME280;68213;40.528;44.712;2023-05-14T01:20:37;80170.50;;;5.59;88.97
62680;BME280;68213;40.528;44.712;2023-05-14T01:21:39;80172.44;;;5.58;89.92
62680;BME280;68213;40.528;44.712;2023-05-14T01:22:42;80176.91;;;5.67;89.05
62680;BME280;68213;40.528;44.712;2023-05-14T01:23:42;80173.06;;;5.68;89.04
62680;BME280;68213;40.528;44.712;2023-05-14T01:24:43;80172.38;;;5.68;89.08
62680;BME280;68213;40.528;44.712;2023-05-14T01:25:44;80169.09;;;5.67;88.82
62680;BME280;68213;40.528;44.712;2023-05-14T01:26:44;80171.94;;;5.71;88.46
62680;BME280;68213;40.528;44.712;2023-05-14T01:29:14;80168.97;;;5.65;88.59
62680;BME280;68213;40.528;44.712;2023-05-14T01:30:30;80167.72;;;5.66;89.59
62680;BME280;68213;40.528;44.712;2023-05-14T01:31:35;80171.44;;;5.63;88.98
62680;BME280;68213;40.528;44.712;2023-05-14T01:33:47;80173.75;;;5.69;88.79
62680;BME280;68213;40.528;44.712;2023-05-14T01:34:49;80177.16;;;5.71;88.46
62680;BME280;68213;40.528;44.712;2023-05-14T01:35:52;80177.16;;;5.71;88.62
62680;BME280;68213;40.528;44.712;2023-05-14T01:36:54;80155.97;;;5.55;88.54
62680;BME280;68213;40.528;44.712;2023-05-14T01:37:58;80179.66;;;5.69;88.52
62680;BME280;68213;40.528;44.712;2023-05-14T01:39:03;80182.38;;;5.71;88.51
62680;BME280;68213;40.528;44.712;2023-05-14T01:40:04;80181.16;;;5.72;88.12
62680;BME280;68213;40.528;44.712;2023-05-14T01:41:06;80176.91;;;5.67;88.16
62680;BME280;68213;40.528;44.712;2023-05-14T01:42:06;80183.38;;;5.66;88.19
62680;BME280;68213;40.528;44.712;2023-05-14T01:43:08;80184.75;;;5.67;88.41
62680;BME280;68213;40.528;44.712;2023-05-14T01:44:10;80184.09;;;5.57;88.53
62680;BME280;68213;40.528;44.712;2023-05-14T01:45:10;80166.84;;;5.52;89.10
62680;BME280;68213;40.528;44.712;2023-05-14T01:46:11;80178.31;;;5.59;88.70
62680;BME280;68213;40.528;44.712;2023-05-14T01:47:12;80181.06;;;5.61;88.84
62680;BME280;68213;40.528;44.712;2023-05-14T01:48:13;80177.78;;;5.60;89.38
62680;BME280;68213;40.528;44.712;2023-05-14T01:49:14;80183.72;;;5.51;88.42
62680;BME280;68213;40.528;44.712;2023-05-14T01:50:17;80159.16;;;5.22;89.46
62680;BME280;68213;40.528;44.712;2023-05-14T01:51:18;80181.97;;;5.44;90.04
62680;BME280;68213;40.528;44.712;2023-05-14T01:52:19;80183.47;;;5.47;89.57
62680;BME280;68213;40.528;44.712;2023-05-14T01:53:23;80188.69;;;5.47;89.50
62680;BME280;68213;40.528;44.712;2023-05-14T01:54:24;80188.38;;;5.52;89.69
62680;BME280;68213;40.528;44.712;2023-05-14T01:55:24;80181.78;;;5.51;88.99
62680;BME280;68213;40.528;44.712;2023-05-14T01:56:25;80186.16;;;5.59;89.01
62680;BME280;68213;40.528;44.712;2023-05-14T01:57:30;80187.94;;;5.56;89.17
62680;BME280;68213;40.528;44.712;2023-05-14T01:58:31;80191.69;;;5.53;89.16
62680;BME280;68213;40.528;44.712;2023-05-14T01:59:34;80191.25;;;5.56;89.06
62680;BME280;68213;40.528;44.712;2023-05-14T02:00:38;80183.44;;;5.56;89.26
62680;BME280;68213;40.528;44.712;2023-05-14T02:01:38;80192.88;;;5.62;89.36
62680;BME280;68213;40.528;44.712;2023-05-14T02:02:39;80190.56;;;5.56;89.68
62680;BME280;68213;40.528;44.712;2023-05-14T02:03:40;80188.75;;;5.59;89.32
62680;BME280;68213;40.528;44.712;2023-05-14T02:04:41;80191.31;;;5.47;90.05
62680;BME280;68213;40.528;44.712;2023-05-14T02:05:41;80186.09;;;5.47;90.87
62680;BME280;68213;40.528;44.712;2023-05-14T02:06:42;80195.75;;;5.56;91.00
62680;BME280;68213;40.528;44.712;2023-05-14T02:07:42;80190.56;;;5.56;90.33
62680;BME280;68213;40.528;44.712;2023-05-14T02:08:43;80194.97;;;5.53;90.25
62680;BME280;68213;40.528;44.712;2023-05-14T02:09:44;80195.66;;;5.54;90.36
62680;BME280;68213;40.528;44.712;2023-05-14T02:10:47;80195.91;;;5.58;90.05
62680;BME280;68213;40.528;44.712;2023-05-14T02:11:48;80199.63;;;5.55;89.55
62680;BME280;68213;40.528;44.712;2023-05-14T02:12:49;80203.16;;;5.60;89.86
62680;BME280;68213;40.528;44.712;2023-05-14T02:13:49;80208.94;;;5.58;89.56
62680;BME280;68213;40.528;44.712;2023-05-14T02:14:50;80207.69;;;5.59;89.24
62680;BME280;68213;40.528;44.712;2023-05-14T02:15:51;80199.06;;;5.56;89.38
62680;BME280;68213;40.528;44.712;2023-05-14T02:16:51;80207.94;;;5.63;89.21
62680;BME280;68213;40.528;44.712;2023-05-14T02:17:55;80208.78;;;5.66;88.98
62680;BME280;68213;40.528;44.712;2023-05-14T02:18:55;80212.63;;;5.65;88.67
62680;BME280;68213;40.528;44.712;2023-05-14T02:19:56;80212.06;;;5.66;88.55
62680;BME280;68213;40.528;44.712;2023-05-14T02:20:57;80208.66;;;5.64;89.23
62680;BME280;68213;40.528;44.712;2023-05-14T02:21:58;80205.47;;;5.65;89.08
62680;BME280;68213;40.528;44.712;2023-05-14T02:22:59;80206.16;;;5.66;88.80
62680;BME280;68213;40.528;44.712;2023-05-14T02:24:00;80209.19;;;5.62;88.95
62680;BME280;68213;40.528;44.712;2023-05-14T02:25:01;80206.84;;;5.66;89.37
62680;BME280;68213;40.528;44.712;2023-05-14T02:26:01;80213.16;;;5.63;89.32
62680;BME280;68213;40.528;44.712;2023-05-14T02:27:04;80208.50;;;5.62;89.66
62680;BME280;68213;40.528;44.712;2023-05-14T02:28:05;80207.69;;;5.59;89.79
62680;BME280;68213;40.528;44.712;2023-05-14T02:29:06;80192.53;;;5.46;89.96
62680;BME280;68213;40.528;44.712;2023-05-14T02:30:08;80207.69;;;5.59;90.17
62680;BME280;68213;40.528;44.712;2023-05-14T02:31:08;80218.94;;;5.62;88.90
62680;BME280;68213;40.528;44.712;2023-05-14T02:32:09;80212.06;;;5.66;88.45
62680;BME280;68213;40.528;44.712;2023-05-14T02:33:10;80212.06;;;5.66;87.83
62680;BME280;68213;40.528;44.712;2023-05-14T02:34:11;80211.78;;;5.72;87.84
62680;BME280;68213;40.528;44.712;2023-05-14T02:35:12;80209.31;;;5.64;89.33
62680;BME280;68213;40.528;44.712;2023-05-14T02:36:12;80208.66;;;5.64;89.35
62680;BME280;68213;40.528;44.712;2023-05-14T02:37:15;80214.91;;;5.70;89.30
62680;BME280;68213;40.528;44.712;2023-05-14T02:38:16;80213.56;;;5.69;89.35
62680;BME280;68213;40.528;44.712;2023-05-14T02:39:17;80219.16;;;5.76;88.31
62680;BME280;68213;40.528;44.712;2023-05-14T02:40:17;80212.16;;;5.78;88.15
62680;BME280;68213;40.528;44.712;2023-05-14T02:41:18;80188.47;;;5.64;87.94
62680;BME280;68213;40.528;44.712;2023-05-14T02:42:19;80211.00;;;5.81;87.47
62680;BME280;68213;40.528;44.712;2023-05-14T02:43:19;80214.47;;;5.84;88.09
62680;BME280;68213;40.528;44.712;2023-05-14T02:44:20;80214.84;;;5.90;87.69
62680;BME280;68213;40.528;44.712;2023-05-14T02:45:24;80211.78;;;5.94;86.78
62680;BME280;68213;40.528;44.712;2023-05-14T02:46:24;80223.59;;;5.95;86.56
62680;BME280;68213;40.528;44.712;2023-05-14T02:47:25;80219.06;;;5.95;86.77
62680;BME280;68213;40.528;44.712;2023-05-14T02:48:26;80230.06;;;5.94;86.18
62680;BME280;68213;40.528;44.712;2023-05-14T02:49:26;80216.19;;;5.91;86.09
62680;BME280;68213;40.528;44.712;2023-05-14T02:50:27;80230.81;;;6.06;85.67
62680;BME280;68213;40.528;44.712;2023-05-14T02:51:28;80227.66;;;6.08;84.60
62680;BME280;68213;40.528;44.712;2023-05-14T02:52:28;80235.75;;;6.12;83.83
62680;BME280;68213;40.528;44.712;2023-05-14T02:53:29;80236.94;;;6.21;83.30
62680;BME280;68213;40.528;44.712;2023-05-14T02:54:30;80213.69;;;6.03;83.30
62680;BME280;68213;40.528;44.712;2023-05-14T02:55:30;80227.63;;;6.17;82.61
62680;BME280;68213;40.528;44.712;2023-05-14T02:56:31;80235.47;;;6.08;81.73
62680;BME280;68213;40.528;44.712;2023-05-14T02:57:32;80238.28;;;6.00;82.27
62680;BME280;68213;40.528;44.712;2023-05-14T02:58:33;80230.44;;;6.00;82.51
62680;BME280;68213;40.528;44.712;2023-05-14T02:59:34;80232.50;;;6.01;82.08
62680;BME280;68213;40.528;44.712;2023-05-14T03:00:35;80236.47;;;6.02;82.97
62680;BME280;68213;40.528;44.712;2023-05-14T03:01:36;80140.03;;;5.30;83.39
62680;BME280;68213;40.528;44.712;2023-05-14T03:02:37;80233.69;;;6.10;83.83
62680;BME280;68213;40.528;44.712;2023-05-14T03:03:38;80230.78;;;6.16;83.37
62680;BME280;68213;40.528;44.712;2023-05-14T03:04:39;80234.50;;;6.13;84.42
62680;BME280;68213;40.528;44.712;2023-05-14T03:05:40;80233.13;;;6.12;84.97
62680;BME280;68213;40.528;44.712;2023-05-14T03:06:40;80241.53;;;6.10;83.94
62680;BME280;68213;40.528;44.712;2023-05-14T03:07:41;80211.66;;;5.92;83.98
62680;BME280;68213;40.528;44.712;2023-05-14T03:08:42;80239.59;;;6.11;84.01
62680;BME280;68213;40.528;44.712;2023-05-14T03:09:42;80240.69;;;6.08;84.40
62680;BME280;68213;40.528;44.712;2023-05-14T03:10:43;80234.13;;;6.07;83.99
62680;BME280;68213;40.528;44.712;2023-05-14T03:11:44;80237.84;;;6.03;85.68
62680;BME280;68213;40.528;44.712;2023-05-14T03:12:45;80235.25;;;6.03;85.70
62680;BME280;68213;40.528;44.712;2023-05-14T03:13:46;80230.03;;;6.03;85.53
62680;BME280;68213;40.528;44.712;2023-05-14T03:14:47;80233.19;;;6.02;85.94
62680;BME280;68213;40.528;44.712;2023-05-14T03:15:47;80238.22;;;6.10;84.94
62680;BME280;68213;40.528;44.712;2023-05-14T03:16:50;80225.03;;;6.08;83.83
62680;BME280;68213;40.528;44.712;2023-05-14T03:17:51;80238.59;;;6.16;83.83
62680;BME280;68213;40.528;44.712;2023-05-14T03:18:52;80237.63;;;6.21;83.70
62680;BME280;68213;40.528;44.712;2023-05-14T03:19:52;80245.94;;;6.29;83.50
62680;BME280;68213;40.528;44.712;2023-05-14T03:20:53;80237.00;;;6.32;82.44
62680;BME280;68213;40.528;44.712;2023-05-14T03:21:54;80249.75;;;6.38;81.30
62680;BME280;68213;40.528;44.712;2023-05-14T03:22:54;80242.88;;;6.33;80.71
62680;BME280;68213;40.528;44.712;2023-05-14T03:23:55;80213.25;;;6.07;81.00
62680;BME280;68213;40.528;44.712;2023-05-14T03:24:56;80239.91;;;6.27;81.78
62680;BME280;68213;40.528;44.712;2023-05-14T03:25:56;80240.72;;;6.29;80.39
62680;BME280;68213;40.528;44.712;2023-05-14T03:26:57;80241.28;;;6.28;80.65
62680;BME280;68213;40.528;44.712;2023-05-14T03:27:58;80244.03;;;6.30;81.57
62680;BME280;68213;40.528;44.712;2023-05-14T03:28:58;80246.19;;;6.33;80.57
62680;BME280;68213;40.528;44.712;2023-05-14T03:30:03;80243.81;;;6.38;81.01
62680;BME280;68213;40.528;44.712;2023-05-14T03:31:05;80227.28;;;6.23;81.62
62680;BME280;68213;40.528;44.712;2023-05-14T03:32:05;80250.69;;;6.43;84.16
62680;BME280;68213;40.528;44.712;2023-05-14T03:33:06;80251.53;;;6.57;84.00
62680;BME280;68213;40.528;44.712;2023-05-14T03:34:07;80255.75;;;6.62;83.42
62680;BME280;68213;40.528;44.712;2023-05-14T03:35:08;80249.16;;;6.61;82.96
62680;BME280;68213;40.528;44.712;2023-05-14T03:36:08;80249.97;;;6.64;82.05
62680;BME280;68213;40.528;44.712;2023-05-14T03:37:10;80254.22;;;6.69;81.76
62680;BME280;68213;40.528;44.712;2023-05-14T03:38:10;80251.53;;;6.57;82.21
62680;BME280;68213;40.528;44.712;2023-05-14T03:39:11;80256.00;;;6.45;82.15
62680;BME280;68213;40.528;44.712;2023-05-14T03:40:14;80250.69;;;6.43;84.28
62680;BME280;68213;40.528;44.712;2023-05-14T03:41:15;80253.03;;;6.39;85.52
62680;BME280;68213;40.528;44.712;2023-05-14T03:42:17;80257.88;;;6.54;85.20
62680;BME280;68213;40.528;44.712;2023-05-14T03:43:18;80254.03;;;6.55;85.93
62680;BME280;68213;40.528;44.712;2023-05-14T03:44:19;80235.88;;;6.57;85.25
62680;BME280;68213;40.528;44.712;2023-05-14T03:45:19;80251.16;;;6.73;85.00
62680;BME280;68213;40.528;44.712;2023-05-14T03:46:20;80247.31;;;6.74;85.32
62680;BME280;68213;40.528;44.712;2023-05-14T03:47:21;80249.44;;;6.65;85.99
62680;BME280;68213;40.528;44.712;2023-05-14T03:48:21;80248.00;;;6.53;86.53
62680;BME280;68213;40.528;44.712;2023-05-14T03:49:22;80234.81;;;6.50;85.74
62680;BME280;68213;40.528;44.712;2023-05-14T03:50:23;80253.94;;;6.65;84.70
62680;BME280;68213;40.528;44.712;2023-05-14T03:51:27;80247.34;;;6.64;85.91
62680;BME280;68213;40.528;44.712;2023-05-14T03:52:27;80247.75;;;6.70;85.76
62680;BME280;68213;40.528;44.712;2023-05-14T03:53:28;80252.63;;;6.76;85.03
62680;BME280;68213;40.528;44.712;2023-05-14T03:54:28;80248.16;;;6.88;84.87
62680;BME280;68213;40.528;44.712;2023-05-14T03:55:29;80253.47;;;6.90;84.48
62680;BME280;68213;40.528;44.712;2023-05-14T03:56:30;80252.50;;;6.95;83.94
62680;BME280;68213;40.528;44.712;2023-05-14T03:57:36;80254.09;;;7.01;82.41
62680;BME280;68213;40.528;44.712;2023-05-14T03:58:37;80252.97;;;7.04;81.87
62680;BME280;68213;40.528;44.712;2023-05-14T03:59:37;80252.09;;;7.11;81.79
62680;BME280;68213;40.528;44.712;2023-05-14T04:00:41;80236.72;;;7.05;82.45
62680;BME280;68213;40.528;44.712;2023-05-14T04:01:43;80253.72;;;7.28;81.83
62680;BME280;68213;40.528;44.712;2023-05-14T04:02:44;80254.22;;;7.36;82.90
62680;BME280;68213;40.528;44.712;2023-05-14T04:03:44;80256.38;;;7.40;82.37
62680;BME280;68213;40.528;44.712;2023-05-14T04:04:45;80258.19;;;7.49;80.73
62680;BME280;68213;40.528;44.712;2023-05-14T04:05:45;80257.19;;;7.54;79.06
62680;BME280;68213;40.528;44.712;2023-05-14T04:06:46;80260.28;;;7.62;78.86
62680;BME280;68213;40.528;44.712;2023-05-14T04:07:47;80259.59;;;7.74;78.16
62680;BME280;68213;40.528;44.712;2023-05-14T04:08:47;80263.38;;;7.83;77.62
62680;BME280;68213;40.528;44.712;2023-05-14T04:09:48;80239.78;;;7.71;79.25
62680;BME280;68213;40.528;44.712;2023-05-14T04:10:49;80264.06;;;7.95;77.71
62680;BME280;68213;40.528;44.712;2023-05-14T04:11:50;80262.00;;;7.93;77.22
62680;BME280;68213;40.528;44.712;2023-05-14T04:12:51;80258.38;;;7.87;77.10
62680;BME280;68213;40.528;44.712;2023-05-14T04:13:52;80264.53;;;7.91;77.73
62680;BME280;68213;40.528;44.712;2023-05-14T04:14:52;80263.69;;;7.65;78.13
62680;BME280;68213;40.528;44.712;2023-05-14T04:15:53;80264.47;;;7.56;78.16
62680;BME280;68213;40.528;44.712;2023-05-14T04:16:53;80261.53;;;7.61;79.10
62680;BME280;68213;40.528;44.712;2023-05-14T04:17:54;80272.09;;;7.63;78.32
62680;BME280;68213;40.528;44.712;2023-05-14T04:18:55;80262.31;;;7.64;77.55
62680;BME280;68213;40.528;44.712;2023-05-14T04:19:55;80265.63;;;7.65;77.05
62680;BME280;68213;40.528;44.712;2023-05-14T04:20:56;80265.19;;;7.80;76.38
62680;BME280;68213;40.528;44.712;2023-05-14T04:21:57;80264.25;;;7.75;74.65
62680;BME280;68213;40.528;44.712;2023-05-14T04:22:57;80265.06;;;7.66;75.12
62680;BME280;68213;40.528;44.712;2023-05-14T04:23:59;80265.88;;;7.69;77.10
62680;BME280;68213;40.528;44.712;2023-05-14T04:24:59;80261.31;;;7.81;77.52
62680;BME280;68213;40.528;44.712;2023-05-14T04:26:00;80266.81;;;7.85;77.43
62680;BME280;68213;40.528;44.712;2023-05-14T04:27:01;80264.41;;;7.89;74.85
62680;BME280;68213;40.528;44.712;2023-05-14T04:28:01;80262.34;;;7.88;75.81
62680;BME280;68213;40.528;44.712;2023-05-14T04:29:02;80268.94;;;8.01;75.33
62680;BME280;68213;40.528;44.712;2023-05-14T04:30:03;80266.78;;;8.09;75.86
62680;BME280;68213;40.528;44.712;2023-05-14T04:31:04;80270.78;;;8.10;75.80
62680;BME280;68213;40.528;44.712;2023-05-14T04:32:05;80263.03;;;8.12;77.02
62680;BME280;68213;40.528;44.712;2023-05-14T04:33:06;80264.06;;;8.07;75.49
62680;BME280;68213;40.528;44.712;2023-05-14T04:34:07;80263.03;;;8.12;76.37
62680;BME280;68213;40.528;44.712;2023-05-14T04:35:08;80268.75;;;8.20;76.69
62680;BME280;68213;40.528;44.712;2023-05-14T04:36:09;80263.38;;;8.30;74.71
62680;BME280;68213;40.528;44.712;2023-05-14T04:37:10;80264.50;;;8.27;73.42
62680;BME280;68213;40.528;44.712;2023-05-14T04:38:11;80264.28;;;8.35;74.75
62680;BME280;68213;40.528;44.712;2023-05-14T04:39:13;80267.69;;;8.37;74.75
62680;BME280;68213;40.528;44.712;2023-05-14T04:40:14;80267.47;;;8.45;75.77
62680;BME280;68213;40.528;44.712;2023-05-14T04:41:16;80272.28;;;8.49;74.43
62680;BME280;68213;40.528;44.712;2023-05-14T04:42:16;80269.63;;;8.61;74.84
62680;BME280;68213;40.528;44.712;2023-05-14T04:43:17;80266.53;;;8.64;74.66
62680;BME280;68213;40.528;44.712;2023-05-14T04:44:18;80265.97;;;8.78;73.97
62680;BME280;68213;40.528;44.712;2023-05-14T04:45:18;80265.50;;;8.81;75.73
62680;BME280;68213;40.528;44.712;2023-05-14T04:46:19;80271.31;;;8.80;74.35
62680;BME280;68213;40.528;44.712;2023-05-14T04:47:20;80278.72;;;8.83;74.13
62680;BME280;68213;40.528;44.712;2023-05-14T04:48:20;80268.00;;;8.79;71.46
62680;BME280;68213;40.528;44.712;2023-05-14T04:49:24;80266.81;;;8.56;71.46
62680;BME280;68213;40.528;44.712;2023-05-14T04:50:25;80273.41;;;8.57;73.42
62680;BME280;68213;40.528;44.712;2023-05-14T04:51:26;80273.06;;;8.63;73.55
62680;BME280;68213;40.528;44.712;2023-05-14T04:52:28;80265.41;;;8.67;66.40
62680;BME280;68213;40.528;44.712;2023-05-14T04:53:29;80255.94;;;8.74;70.94
62680;BME280;68213;40.528;44.712;2023-05-14T04:54:30;80265.25;;;8.89;74.44
62680;BME280;68213;40.528;44.712;2023-05-14T04:55:30;80261.97;;;8.88;73.98
62680;BME280;68213;40.528;44.712;2023-05-14T04:56:31;80258.97;;;8.94;74.97
62680;BME280;68213;40.528;44.712;2023-05-14T04:57:31;80257.34;;;9.01;72.97
62680;BME280;68213;40.528;44.712;2023-05-14T04:58:32;80263.03;;;9.09;71.24
62680;BME280;68213;40.528;44.712;2023-05-14T04:59:33;80272.78;;;9.20;71.54
62680;BME280;68213;40.528;44.712;2023-05-14T05:00:33;80268.94;;;9.10;69.49
62680;BME280;68213;40.528;44.712;2023-05-14T05:01:34;80271.44;;;8.82;70.60
62680;BME280;68213;40.528;44.712;2023-05-14T05:02:35;80259.97;;;9.01;69.18
62680;BME280;68213;40.528;44.712;2023-05-14T05:03:36;80274.56;;;9.04;71.10
62680;BME280;68213;40.528;44.712;2023-05-14T05:04:37;80270.59;;;9.03;65.49
62680;BME280;68213;40.528;44.712;2023-05-14T05:05:38;80266.59;;;9.02;65.60
62680;BME280;68213;40.528;44.712;2023-05-14T05:06:39;80271.34;;;9.17;68.57
62680;BME280;68213;40.528;44.712;2023-05-14T05:07:39;80271.44;;;9.19;62.07
62680;BME280;68213;40.528;44.712;2023-05-14T05:08:40;80273.53;;;9.09;60.37
62680;BME280;68213;40.528;44.712;2023-05-14T05:09:42;80275.44;;;9.09;60.98
62680;BME280;68213;40.528;44.712;2023-05-14T05:10:43;80262.13;;;9.04;61.13
62680;BME280;68213;40.528;44.712;2023-05-14T05:11:44;80273.19;;;9.15;61.93
62680;BME280;68213;40.528;44.712;2023-05-14T05:12:44;80261.56;;;9.06;63.82
62680;BME280;68213;40.528;44.712;2023-05-14T05:13:45;80268.25;;;9.21;63.38
62680;BME280;68213;40.528;44.712;2023-05-14T05:14:46;80264.41;;;9.10;65.39
62680;BME280;68213;40.528;44.712;2023-05-14T05:15:46;80270.59;;;9.03;65.20
62680;BME280;68213;40.528;44.712;2023-05-14T05:16:47;80260.09;;;9.03;62.80
62680;BME280;68213;40.528;44.712;2023-05-14T05:17:48;80273.28;;;9.05;62.06
62680;BME280;68213;40.528;44.712;2023-05-14T05:18:48;80266.81;;;8.94;61.56
62680;BME280;68213;40.528;44.712;2023-05-14T05:19:49;80275.88;;;8.79;62.81
62680;BME280;68213;40.528;44.712;2023-05-14T05:20:50;80274.84;;;8.84;60.81
62680;BME280;68213;40.528;44.712;2023-05-14T05:21:51;80262.44;;;8.73;61.69
62680;BME280;68213;40.528;44.712;2023-05-14T05:22:51;80268.81;;;8.70;60.42
62680;BME280;68213;40.528;44.712;2023-05-14T05:23:52;80274.06;;;8.58;57.06
62680;BME280;68213;40.528;44.712;2023-05-14T05:24:52;80277.59;;;8.39;58.71
62680;BME280;68213;40.528;44.712;2023-05-14T05:25:53;80275.22;;;8.43;58.92
62680;BME280;68213;40.528;44.712;2023-05-14T05:26:54;80267.84;;;8.51;59.75
62680;BME280;68213;40.528;44.712;2023-05-14T05:27:55;80274.19;;;8.60;59.47
62680;BME280;68213;40.528;44.712;2023-05-14T05:28:56;80277.94;;;8.69;59.67
62680;BME280;68213;40.528;44.712;2023-05-14T05:29:56;80270.63;;;8.79;60.12
62680;BME280;68213;40.528;44.712;2023-05-14T05:30:57;80264.16;;;8.80;58.87
62680;BME280;68213;40.528;44.712;2023-05-14T05:31:58;80277.09;;;9.02;57.05
62680;BME280;68213;40.528;44.712;2023-05-14T05:32:59;80269.06;;;9.12;57.33
62680;BME280;68213;40.528;44.712;2023-05-14T05:34:00;80274.63;;;9.18;57.08
62680;BME280;68213;40.528;44.712;2023-05-14T05:35:00;80279.22;;;9.17;56.62
62680;BME280;68213;40.528;44.712;2023-05-14T05:36:03;80277.81;;;9.28;57.21
62680;BME280;68213;40.528;44.712;2023-05-14T05:37:05;80283.50;;;9.25;57.49
62680;BME280;68213;40.528;44.712;2023-05-14T05:38:08;80275.66;;;9.25;57.80
62680;BME280;68213;40.528;44.712;2023-05-14T05:39:09;80271.97;;;9.30;57.02
62680;BME280;68213;40.528;44.712;2023-05-14T05:40:10;80277.75;;;9.40;58.38
62680;BME280;68213;40.528;44.712;2023-05-14T05:41:15;80222.06;;;9.16;57.83
62680;BME280;68213;40.528;44.712;2023-05-14T05:42:16;80276.28;;;9.63;58.13
62680;BME280;68213;40.528;44.712;2023-05-14T05:43:17;80274.72;;;9.83;59.88
62680;BME280;68213;40.528;44.712;2023-05-14T05:44:19;80273.44;;;9.84;53.92
62680;BME280;68213;40.528;44.712;2023-05-14T05:45:20;80273.94;;;9.95;53.53
62680;BME280;68213;40.528;44.712;2023-05-14T05:46:21;80279.69;;;9.91;53.82
62680;BME280;68213;40.528;44.712;2023-05-14T05:47:22;80286.22;;;10.04;52.41
62680;BME280;68213;40.528;44.712;2023-05-14T05:48:22;80282.16;;;10.15;51.48
62680;BME280;68213;40.528;44.712;2023-05-14T05:49:23;80288.69;;;10.14;51.24
62680;BME280;68213;40.528;44.712;2023-05-14T05:50:24;80281.09;;;10.20;51.34
62680;BME280;68213;40.528;44.712;2023-05-14T05:51:25;80282.97;;;10.31;51.24
62680;BME280;68213;40.528;44.712;2023-05-14T05:52:26;80290.03;;;10.41;50.88
62680;BME280;68213;40.528;44.712;2023-05-14T05:53:27;80287.69;;;10.47;52.03
62680;BME280;68213;40.528;44.712;2023-05-14T05:54:27;80288.09;;;10.55;52.36
62680;BME280;68213;40.528;44.712;2023-05-14T05:55:28;80255.19;;;10.00;51.94
62680;BME280;68213;40.528;44.712;2023-05-14T05:56:29;80279.25;;;10.09;54.49
62680;BME280;68213;40.528;44.712;2023-05-14T05:57:30;80278.91;;;9.89;50.75
62680;BME280;68213;40.528;44.712;2023-05-14T05:58:30;80274.19;;;9.73;52.26
62680;BME280;68213;40.528;44.712;2023-05-14T05:59:31;80282.69;;;9.34;50.90
62680;BME280;68213;40.528;44.712;2023-05-14T06:00:32;80274.59;;;9.30;51.72